sensor_id;sensor_type;location;lat;lon;timestamp;pressure;altitude;pressure_sealevel;temperature;humidity
28630;BME280;15817;42.130;24.762;2023-04-21T00:00:31;99400.56;;;13.79;97.87
28630;BME280;15817;42.130;24.762;2023-04-21T00:02:57;99395.22;;;13.79;97.79
28630;BME280;15817;42.130;24.762;2023-04-21T00:05:23;99388.31;;;13.72;98.15
28630;BME280;15817;42.130;24.762;2023-04-21T00:07:49;99398.94;;;13.73;98.96
28630;BME280;15817;42.130;24.762;2023-04-21T00:10:15;99384.03;;;13.65;99.08
28630;BME280;15817;42.130;24.762;2023-04-21T00:12:40;99397.28;;;13.69;99.21
28630;BME280;15817;42.130;24.762;2023-04-21T00:15:07;99383.13;;;13.64;99.53
28630;BME280;15817;42.130;24.762;2023-04-21T00:17:33;99395.50;;;13.68;99.49
28630;BME280;15817;42.130;24.762;2023-04-21T00:19:58;99385.94;;;13.60;99.36
28630;BME280;15817;42.130;24.762;2023-04-21T00:22:24;99376.28;;;13.54;99.83
28630;BME280;15817;42.130;24.762;2023-04-21T00:24:52;99381.63;;;13.54;100.00
28630;BME280;15817;42.130;24.762;2023-04-21T00:27:18;99399.31;;;13.60;100.00
28630;BME280;15817;42.130;24.762;2023-04-21T00:29:44;99392.22;;;13.59;100.00
28630;BME280;15817;42.130;24.762;2023-04-21T00:32:10;99385.06;;;13.59;100.00
28630;BME280;15817;42.130;24.762;2023-04-21T00:34:36;99386.84;;;13.60;100.00
28630;BME280;15817;42.130;24.762;2023-04-21T00:37:02;99370.13;;;13.51;100.00
28630;BME280;15817;42.130;24.762;2023-04-21T00:39:28;99384.34;;;13.53;100.00
28630;BME280;15817;42.130;24.762;2023-04-21T00:41:53;99382.69;;;13.49;100.00
28630;BME280;15817;42.130;24.762;2023-04-21T00:44:19;99387.09;;;13.50;100.00
28630;BME280;15817;42.130;24.762;2023-04-21T00:46:45;99382.56;;;13.52;100.00
28630;BME280;15817;42.130;24.762;2023-04-21T00:49:13;99375.53;;;13.49;100.00
28630;BME280;15817;42.130;24.762;2023-04-21T00:51:40;99371.28;;;13.40;100.00
28630;BME280;15817;42.130;24.762;2023-04-21T00:54:06;99374.13;;;13.34;100.00
28630;BME280;15817;42.130;24.762;2023-04-21T00:56:34;99375.03;;;13.33;100.00
28630;BME280;15817;42.130;24.762;2023-04-21T00:59:01;99380.31;;;13.36;100.00
28630;BME280;15817;42.130;24.762;2023-04-21T01:01:28;99376.72;;;13.37;100.00
28630;BME280;15817;42.130;24.762;2023-04-21T01:03:56;99374.97;;;13.36;100.00
28630;BME280;15817;42.130;24.762;2023-04-21T01:06:24;99367.06;;;13.32;100.00
28630;BME280;15817;42.130;24.762;2023-04-21T01:08:51;99367.03;;;13.33;100.00
28630;BME280;15817;42.130;24.762;2023-04-21T01:11:18;99374.25;;;13.28;100.00
28630;BME280;15817;42.130;24.762;2023-04-21T01:13:46;99375.09;;;13.30;100.00
28630;BME280;15817;42.130;24.762;2023-04-21T01:16:16;99368.28;;;13.19;100.00
28630;BME280;15817;42.130;24.762;2023-04-21T01:18:43;99379.91;;;13.16;100.00
28630;BME280;15817;42.130;24.762;2023-04-21T01:21:11;99368.41;;;13.13;100.00
28630;BME280;15817;42.130;24.762;2023-04-21T01:23:42;99369.28;;;13.15;100.00
28630;BME280;15817;42.130;24.762;2023-04-21T01:26:10;99364.75;;;13.17;100.00
28630;BME280;15817;42.130;24.762;2023-04-21T01:28:36;99381.66;;;13.17;100.00
28630;BME280;15817;42.130;24.762;2023-04-21T01:31:03;99375.56;;;13.11;100.00
28630;BME280;15817;42.130;24.762;2023-04-21T01:33:29;99366.78;;;13.05;100.00
28630;BME280;15817;42.130;24.762;2023-04-21T01:35:57;99365.84;;;13.08;100.00
28630;BME280;15817;42.130;24.762;2023-04-21T01:38:24;99377.47;;;13.05;100.00
28630;BME280;15817;42.130;24.762;2023-04-21T01:40:52;99366.81;;;13.04;100.00
28630;BME280;15817;42.130;24.762;2023-04-21T01:43:22;99367.75;;;13.03;100.00
28630;BME280;15817;42.130;24.762;2023-04-21T01:45:51;99374.88;;;13.02;100.00
28630;BME280;15817;42.130;24.762;2023-04-21T01:48:16;99367.81;;;13.00;100.00
28630;BME280;15817;42.130;24.762;2023-04-21T01:50:45;99369.00;;;12.88;100.00
28630;BME280;15817;42.130;24.762;2023-04-21T01:53:11;99367.13;;;12.92;100.00
28630;BME280;15817;42.130;24.762;2023-04-21T01:55:37;99365.41;;;12.89;100.00
28630;BME280;15817;42.130;24.762;2023-04-21T01:58:07;99371.72;;;12.85;100.00
28630;BME280;15817;42.130;24.762;2023-04-21T02:00:36;99371.75;;;12.84;100.00
28630;BME280;15817;42.130;24.762;2023-04-21T02:03:03;99374.53;;;12.79;100.00
28630;BME280;15817;42.130;24.762;2023-04-21T02:05:29;99384.19;;;12.85;100.00
28630;BME280;15817;42.130;24.762;2023-04-21T02:07:55;99381.63;;;12.80;100.00
28630;BME280;15817;42.130;24.762;2023-04-21T02:10:21;99378.00;;;12.83;100.00
28630;BME280;15817;42.130;24.762;2023-04-21T02:12:47;99378.97;;;12.80;100.00
28630;BME280;15817;42.130;24.762;2023-04-21T02:15:13;99381.63;;;12.80;100.00
28630;BME280;15817;42.130;24.762;2023-04-21T02:17:39;99382.56;;;12.78;100.00
28630;BME280;15817;42.130;24.762;2023-04-21T02:20:07;99380.81;;;12.77;100.00
28630;BME280;15817;42.130;24.762;2023-04-21T02:22:33;99383.53;;;12.75;100.00
28630;BME280;15817;42.130;24.762;2023-04-21T02:25:02;99375.56;;;12.72;100.00
28630;BME280;15817;42.130;24.762;2023-04-21T02:27:30;99379.31;;;12.65;100.00
28630;BME280;15817;42.130;24.762;2023-04-21T02:30:03;99380.22;;;12.64;100.00
28630;BME280;15817;42.130;24.762;2023-04-21T02:32:29;99375.88;;;12.58;100.00
28630;BME280;15817;42.130;24.762;2023-04-21T02:34:56;99379.50;;;12.56;100.00
28630;BME280;15817;42.130;24.762;2023-04-21T02:37:23;99376.91;;;12.53;100.00
28630;BME280;15817;42.130;24.762;2023-04-21T02:39:52;99379.50;;;12.56;100.00
28630;BME280;15817;42.130;24.762;2023-04-21T02:42:18;99357.47;;;12.46;100.00
28630;BME280;15817;42.130;24.762;2023-04-21T02:44:45;99360.13;;;12.46;100.00
28630;BME280;15817;42.130;24.762;2023-04-21T02:47:17;99372.44;;;12.53;100.00
28630;BME280;15817;42.130;24.762;2023-04-21T02:49:45;99357.47;;;12.46;100.00
28630;BME280;15817;42.130;24.762;2023-04-21T02:52:11;99376.94;;;12.51;100.00
28630;BME280;15817;42.130;24.762;2023-04-21T02:54:37;99361.97;;;12.46;100.00
28630;BME280;15817;42.130;24.762;2023-04-21T02:57:03;99372.56;;;12.47;100.00
28630;BME280;15817;42.130;24.762;2023-04-21T02:59:29;99360.44;;;12.34;100.00
28630;BME280;15817;42.130;24.762;2023-04-21T03:01:58;99356.03;;;12.31;100.00
28630;BME280;15817;42.130;24.762;2023-04-21T03:04:24;99362.31;;;12.27;100.00
28630;BME280;15817;42.130;24.762;2023-04-21T03:06:51;99368.59;;;12.25;100.00
28630;BME280;15817;42.130;24.762;2023-04-21T03:09:17;99369.56;;;12.22;100.00
28630;BME280;15817;42.130;24.762;2023-04-21T03:11:43;99379.28;;;12.23;100.00
28630;BME280;15817;42.130;24.762;2023-04-21T03:14:08;99361.69;;;12.15;100.00
28630;BME280;15817;42.130;24.762;2023-04-21T03:16:34;99372.38;;;12.15;100.00
28630;BME280;15817;42.130;24.762;2023-04-21T03:19:01;99373.25;;;12.15;100.00
28630;BME280;15817;42.130;24.762;2023-04-21T03:21:27;99379.47;;;12.14;100.00
28630;BME280;15817;42.130;24.762;2023-04-21T03:23:53;99362.63;;;12.12;100.00
28630;BME280;15817;42.130;24.762;2023-04-21T03:26:19;99372.38;;;12.13;100.00
28630;BME280;15817;42.130;24.762;2023-04-21T03:28:45;99373.28;;;12.12;100.00
28630;BME280;15817;42.130;24.762;2023-04-21T03:31:12;99379.56;;;12.11;100.00
28630;BME280;15817;42.130;24.762;2023-04-21T03:33:40;99384.81;;;12.14;100.00
28630;BME280;15817;42.130;24.762;2023-04-21T03:36:06;99386.69;;;12.11;100.00
28630;BME280;15817;42.130;24.762;2023-04-21T03:38:39;99378.84;;;12.02;100.00
28630;BME280;15817;42.130;24.762;2023-04-21T03:41:05;99384.94;;;12.10;100.00
28630;BME280;15817;42.130;24.762;2023-04-21T03:43:31;99393.88;;;12.06;100.00
28630;BME280;15817;42.130;24.762;2023-04-21T03:45:57;99393.06;;;12.02;100.00
28630;BME280;15817;42.130;24.762;2023-04-21T03:48:23;99414.38;;;12.02;100.00
28630;BME280;15817;42.130;24.762;2023-04-21T03:51:00;99390.63;;;11.88;100.00
28630;BME280;15817;42.130;24.762;2023-04-21T03:53:29;99390.69;;;11.87;100.00
28630;BME280;15817;42.130;24.762;2023-04-21T03:55:55;99403.94;;;11.90;100.00
28630;BME280;15817;42.130;24.762;2023-04-21T03:58:20;99389.84;;;11.85;100.00
28630;BME280;15817;42.130;24.762;2023-04-21T04:00:46;99407.44;;;11.93;100.00
28630;BME280;15817;42.130;24.762;2023-04-21T04:03:12;99410.09;;;11.93;100.00
28630;BME280;15817;42.130;24.762;2023-04-21T04:05:41;99403.88;;;11.94;100.00
28630;BME280;15817;42.130;24.762;2023-04-21T04:08:06;99400.41;;;11.89;100.00
28630;BME280;15817;42.130;24.762;2023-04-21T04:10:32;99395.16;;;11.86;100.00
28630;BME280;15817;42.130;24.762;2023-04-21T04:12:58;99403.13;;;11.88;100.00
28630;BME280;15817;42.130;24.762;2023-04-21T04:15:24;99404.94;;;11.84;100.00
28630;BME280;15817;42.130;24.762;2023-04-21T04:17:49;99404.84;;;11.89;100.00
28630;BME280;15817;42.130;24.762;2023-04-21T04:20:15;99401.28;;;11.90;100.00
28630;BME280;15817;42.130;24.762;2023-04-21T04:22:41;99395.91;;;11.91;100.00
28630;BME280;15817;42.130;24.762;2023-04-21T04:25:07;99393.31;;;11.88;100.00
28630;BME280;15817;42.130;24.762;2023-04-21T04:27:34;99394.28;;;11.86;100.00
28630;BME280;15817;42.130;24.762;2023-04-21T04:30:00;99403.06;;;11.89;100.00
28630;BME280;15817;42.130;24.762;2023-04-21T04:32:25;99405.59;;;11.99;100.00
28630;BME280;15817;42.130;24.762;2023-04-21T04:34:59;99403.72;;;12.01;100.00
28630;BME280;15817;42.130;24.762;2023-04-21T04:37:25;99416.97;;;12.07;100.00
28630;BME280;15817;42.130;24.762;2023-04-21T04:39:52;99420.38;;;12.13;100.00
28630;BME280;15817;42.130;24.762;2023-04-21T04:42:18;99418.66;;;12.11;100.00
28630;BME280;15817;42.130;24.762;2023-04-21T04:44:49;99417.72;;;12.13;100.00
28630;BME280;15817;42.130;24.762;2023-04-21T04:47:17;99413.22;;;12.15;100.00
28630;BME280;15817;42.130;24.762;2023-04-21T04:49:51;99416.69;;;12.20;100.00
28630;BME280;15817;42.130;24.762;2023-04-21T04:52:22;99416.69;;;12.22;100.00
28630;BME280;15817;42.130;24.762;2023-04-21T04:54:48;99417.56;;;12.22;100.00
28630;BME280;15817;42.130;24.762;2023-04-21T04:57:14;99429.78;;;12.32;100.00
28630;BME280;15817;42.130;24.762;2023-04-21T04:59:42;99435.00;;;12.37;100.00
28630;BME280;15817;42.130;24.762;2023-04-21T05:02:08;99432.28;;;12.40;100.00
28630;BME280;15817;42.130;24.762;2023-04-21T05:04:35;99422.66;;;12.33;100.00
28630;BME280;15817;42.130;24.762;2023-04-21T05:07:01;99415.44;;;12.38;100.00
28630;BME280;15817;42.130;24.762;2023-04-21T05:09:29;99425.16;;;12.42;100.00
28630;BME280;15817;42.130;24.762;2023-04-21T05:12:00;99434.78;;;12.48;100.00
28630;BME280;15817;42.130;24.762;2023-04-21T05:14:28;99436.56;;;12.49;100.00
28630;BME280;15817;42.130;24.762;2023-04-21T05:17:00;99430.28;;;12.51;100.00
28630;BME280;15817;42.130;24.762;2023-04-21T05:19:26;99432.00;;;12.55;100.00
28630;BME280;15817;42.130;24.762;2023-04-21T05:21:52;99438.13;;;12.59;100.00
28630;BME280;15817;42.130;24.762;2023-04-21T05:24:21;99422.19;;;12.56;100.00
28630;BME280;15817;42.130;24.762;2023-04-21T05:26:48;99434.44;;;12.64;100.00
28630;BME280;15817;42.130;24.762;2023-04-21T05:29:14;99427.31;;;12.65;100.00
28630;BME280;15817;42.130;24.762;2023-04-21T05:31:40;99425.63;;;12.61;99.94
28630;BME280;15817;42.130;24.762;2023-04-21T05:34:06;99438.72;;;12.73;99.21
28630;BME280;15817;42.130;24.762;2023-04-21T05:36:32;99424.53;;;12.69;98.96
28630;BME280;15817;42.130;24.762;2023-04-21T05:38:58;99424.41;;;12.77;99.64
28630;BME280;15817;42.130;24.762;2023-04-21T05:41:24;99427.03;;;12.79;97.95
28630;BME280;15817;42.130;24.762;2023-04-21T05:43:50;99424.19;;;12.86;97.62
28630;BME280;15817;42.130;24.762;2023-04-21T05:46:15;99415.22;;;12.90;97.15
28630;BME280;15817;42.130;24.762;2023-04-21T05:48:41;99405.47;;;12.88;96.40
28630;BME280;15817;42.130;24.762;2023-04-21T05:51:13;99422.03;;;13.03;95.09
28630;BME280;15817;42.130;24.762;2023-04-21T05:53:43;99406.97;;;12.99;94.61
28630;BME280;15817;42.130;24.762;2023-04-21T05:56:10;99405.94;;;13.05;93.41
28630;BME280;15817;42.130;24.762;2023-04-21T05:58:37;99409.25;;;13.18;92.14
28630;BME280;15817;42.130;24.762;2023-04-21T06:01:03;99418.88;;;13.25;92.69
28630;BME280;15817;42.130;24.762;2023-04-21T06:03:30;99405.53;;;13.25;93.07
28630;BME280;15817;42.130;24.762;2023-04-21T06:05:58;99408.03;;;13.31;91.25
28630;BME280;15817;42.130;24.762;2023-04-21T06:08:25;99398.16;;;13.34;90.58
28630;BME280;15817;42.130;24.762;2023-04-21T06:10:51;99391.88;;;13.37;88.64
28630;BME280;15817;42.130;24.762;2023-04-21T06:13:17;99398.81;;;13.44;87.20
28630;BME280;15817;42.130;24.762;2023-04-21T06:15:43;99410.16;;;13.52;85.61
28630;BME280;15817;42.130;24.762;2023-04-21T06:18:11;99403.00;;;13.54;85.47
28630;BME280;15817;42.130;24.762;2023-04-21T06:20:37;99399.41;;;13.55;84.08
28630;BME280;15817;42.130;24.762;2023-04-21T06:23:05;99408.00;;;13.68;82.04
28630;BME280;15817;42.130;24.762;2023-04-21T06:25:31;99392.06;;;13.63;82.15
28630;BME280;15817;42.130;24.762;2023-04-21T06:27:56;99403.28;;;13.77;81.15
28630;BME280;15817;42.130;24.762;2023-04-21T06:30:23;99399.69;;;13.78;80.46
28630;BME280;15817;42.130;24.762;2023-04-21T06:32:49;99396.03;;;13.83;80.56
28630;BME280;15817;42.130;24.762;2023-04-21T06:35:15;99396.00;;;13.84;79.18
28630;BME280;15817;42.130;24.762;2023-04-21T06:37:41;99391.47;;;13.86;80.04
28630;BME280;15817;42.130;24.762;2023-04-21T06:40:07;99383.41;;;13.88;78.38
28630;BME280;15817;42.130;24.762;2023-04-21T06:42:33;99398.28;;;13.98;77.52
28630;BME280;15817;42.130;24.762;2023-04-21T06:44:59;99383.28;;;13.92;76.33
28630;BME280;15817;42.130;24.762;2023-04-21T06:47:25;99387.50;;;14.01;76.70
28630;BME280;15817;42.130;24.762;2023-04-21T06:49:51;99390.03;;;14.07;76.48
28630;BME280;15817;42.130;24.762;2023-04-21T06:52:17;99379.16;;;14.13;75.49
28630;BME280;15817;42.130;24.762;2023-04-21T06:54:43;99396.75;;;14.20;75.34
28630;BME280;15817;42.130;24.762;2023-04-21T06:57:08;99398.44;;;14.24;75.70
28630;BME280;15817;42.130;24.762;2023-04-21T06:59:34;99387.78;;;14.23;74.88
28630;BME280;15817;42.130;24.762;2023-04-21T07:02:00;99396.63;;;14.25;76.50
28630;BME280;15817;42.130;24.762;2023-04-21T07:04:26;99408.91;;;14.32;76.12
28630;BME280;15817;42.130;24.762;2023-04-21T07:06:54;99415.81;;;14.42;75.53
28630;BME280;15817;42.130;24.762;2023-04-21T07:09:20;99405.84;;;14.47;74.98
28630;BME280;15817;42.130;24.762;2023-04-21T07:11:46;99401.38;;;14.47;75.40
28630;BME280;15817;42.130;24.762;2023-04-21T07:14:17;99400.44;;;14.48;75.44
28630;BME280;15817;42.130;24.762;2023-04-21T07:16:43;99406.47;;;14.55;74.60
28630;BME280;15817;42.130;24.762;2023-04-21T07:19:12;99400.97;;;14.61;74.86
28630;BME280;15817;42.130;24.762;2023-04-21T07:21:40;99410.47;;;14.71;74.44
28630;BME280;15817;42.130;24.762;2023-04-21T07:24:11;99395.25;;;14.73;74.40
28630;BME280;15817;42.130;24.762;2023-04-21T07:26:46;99411.59;;;14.92;73.59
28630;BME280;15817;42.130;24.762;2023-04-21T07:29:12;99406.09;;;14.98;73.17
28630;BME280;15817;42.130;24.762;2023-04-21T07:31:40;99410.31;;;15.05;72.66
28630;BME280;15817;42.130;24.762;2023-04-21T07:34:06;99398.63;;;15.08;72.14
28630;BME280;15817;42.130;24.762;2023-04-21T07:36:32;99394.63;;;15.21;72.27
28630;BME280;15817;42.130;24.762;2023-04-21T07:39:03;99398.53;;;15.37;72.54
28630;BME280;15817;42.130;24.762;2023-04-21T07:41:29;99399.78;;;15.55;71.35
28630;BME280;15817;42.130;24.762;2023-04-21T07:43:55;99400.81;;;15.77;70.95
28630;BME280;15817;42.130;24.762;2023-04-21T07:46:30;99384.28;;;15.89;69.93
28630;BME280;15817;42.130;24.762;2023-04-21T07:48:57;99391.47;;;16.14;70.32
28630;BME280;15817;42.130;24.762;2023-04-21T07:51:25;99391.31;;;16.42;68.59
28630;BME280;15817;42.130;24.762;2023-04-21T07:53:52;99395.09;;;16.61;68.47
28630;BME280;15817;42.130;24.762;2023-04-21T07:56:18;99389.84;;;16.81;67.08
28630;BME280;15817;42.130;24.762;2023-04-21T07:58:44;99400.19;;;17.14;65.91
28630;BME280;15817;42.130;24.762;2023-04-21T08:01:10;99400.25;;;17.34;65.70
28630;BME280;15817;42.130;24.762;2023-04-21T08:03:36;99398.25;;;17.61;64.55
28630;BME280;15817;42.130;24.762;2023-04-21T08:06:03;99396.25;;;17.88;63.46
28630;BME280;15817;42.130;24.762;2023-04-21T08:08:28;99393.59;;;18.06;62.03
28630;BME280;15817;42.130;24.762;2023-04-21T08:10:54;99401.34;;;18.34;61.77
28630;BME280;15817;42.130;24.762;2023-04-21T08:13:20;99379.97;;;18.50;60.72
28630;BME280;15817;42.130;24.762;2023-04-21T08:15:52;99388.13;;;18.69;60.95
28630;BME280;15817;42.130;24.762;2023-04-21T08:18:17;99389.75;;;18.71;58.77
28630;BME280;15817;42.130;24.762;2023-04-21T08:20:46;99388.31;;;18.83;58.44
28630;BME280;15817;42.130;24.762;2023-04-21T08:23:15;99378.94;;;18.92;56.61
28630;BME280;15817;42.130;24.762;2023-04-21T08:25:47;99375.22;;;19.13;56.69
28630;BME280;15817;42.130;24.762;2023-04-21T08:28:15;99383.19;;;19.33;55.09
28630;BME280;15817;42.130;24.762;2023-04-21T08:30:41;99384.63;;;19.40;54.73
28630;BME280;15817;42.130;24.762;2023-04-21T08:33:07;99376.53;;;19.59;53.51
28630;BME280;15817;42.130;24.762;2023-04-21T08:35:40;99372.97;;;19.76;52.50
28630;BME280;15817;42.130;24.762;2023-04-21T08:38:07;99379.56;;;20.05;52.18
28630;BME280;15817;42.130;24.762;2023-04-21T08:43:25;99371.84;;;20.14;50.63
28630;BME280;15817;42.130;24.762;2023-04-21T08:45:51;99373.19;;;20.23;49.38
28630;BME280;15817;42.130;24.762;2023-04-21T08:48:24;99369.91;;;20.51;49.23
28630;BME280;15817;42.130;24.762;2023-04-21T08:50:51;99359.19;;;20.49;49.02
28630;BME280;15817;42.130;24.762;2023-04-21T08:53:18;99357.75;;;20.75;48.88
28630;BME280;15817;42.130;24.762;2023-04-21T08:55:44;99371.56;;;20.86;47.90
28630;BME280;15817;42.130;24.762;2023-04-21T08:58:11;99378.53;;;21.06;47.46
28630;BME280;15817;42.130;24.762;2023-04-21T09:00:37;99369.75;;;21.18;46.91
28630;BME280;15817;42.130;24.762;2023-04-21T09:03:05;99354.47;;;21.33;47.73
28630;BME280;15817;42.130;24.762;2023-04-21T09:05:33;99362.16;;;21.41;47.63
28630;BME280;15817;42.130;24.762;2023-04-21T09:08:10;99368.06;;;21.47;46.91
28630;BME280;15817;42.130;24.762;2023-04-21T09:10:49;99353.84;;;21.44;45.80
28630;BME280;15817;42.130;24.762;2023-04-21T09:13:16;99355.84;;;21.56;46.35
28630;BME280;15817;42.130;24.762;2023-04-21T09:15:45;99353.28;;;21.68;44.64
28630;BME280;15817;42.130;24.762;2023-04-21T09:18:19;99347.41;;;21.76;44.68
28630;BME280;15817;42.130;24.762;2023-04-21T09:20:46;99344.25;;;21.98;44.45
28630;BME280;15817;42.130;24.762;2023-04-21T09:23:16;99339.50;;;22.03;43.70
28630;BME280;15817;42.130;24.762;2023-04-21T09:25:43;99340.63;;;21.99;43.71
28630;BME280;15817;42.130;24.762;2023-04-21T09:28:12;99342.41;;;22.14;44.34
28630;BME280;15817;42.130;24.762;2023-04-21T09:30:40;99335.41;;;22.10;44.74
28630;BME280;15817;42.130;24.762;2023-04-21T09:33:09;99336.97;;;22.28;43.89
28630;BME280;15817;42.130;24.762;2023-04-21T09:35:40;99327.00;;;22.29;43.49
28630;BME280;15817;42.130;24.762;2023-04-21T09:38:11;99324.22;;;22.30;42.65
28630;BME280;15817;42.130;24.762;2023-04-21T09:40:37;99323.06;;;22.49;42.96
28630;BME280;15817;42.130;24.762;2023-04-21T09:43:05;99318.59;;;22.62;42.69
28630;BME280;15817;42.130;24.762;2023-04-21T09:45:31;99324.22;;;22.59;41.52
28630;BME280;15817;42.130;24.762;2023-04-21T09:47:59;99315.88;;;22.62;42.30
28630;BME280;15817;42.130;24.762;2023-04-21T09:50:27;99317.34;;;22.67;42.55
28630;BME280;15817;42.130;24.762;2023-04-21T09:52:54;99308.91;;;22.72;41.81
28630;BME280;15817;42.130;24.762;2023-04-21T09:55:27;99311.94;;;22.82;41.87
28630;BME280;15817;42.130;24.762;2023-04-21T09:57:58;99300.19;;;22.95;41.38
28630;BME280;15817;42.130;24.762;2023-04-21T10:00:26;99288.56;;;22.93;41.32
28630;BME280;15817;42.130;24.762;2023-04-21T10:02:59;99301.31;;;23.05;41.19
28630;BME280;15817;42.130;24.762;2023-04-21T10:05:28;99293.91;;;22.95;40.74
28630;BME280;15817;42.130;24.762;2023-04-21T10:07:55;99296.34;;;23.12;41.68
28630;BME280;15817;42.130;24.762;2023-04-21T10:10:24;99298.38;;;22.25;41.81
28630;BME280;15817;42.130;24.762;2023-04-21T10:12:50;99290.44;;;22.22;41.89
28630;BME280;15817;42.130;24.762;2023-04-21T10:15:39;99295.38;;;22.72;40.55
28630;BME280;15817;42.130;24.762;2023-04-21T10:18:15;99293.72;;;22.84;39.66
28630;BME280;15817;42.130;24.762;2023-04-21T10:23:38;99274.53;;;23.14;38.98
28630;BME280;15817;42.130;24.762;2023-04-21T10:26:21;99286.13;;;23.30;39.49
28630;BME280;15817;42.130;24.762;2023-04-21T10:29:02;99282.72;;;23.26;38.91
28630;BME280;15817;42.130;24.762;2023-04-21T10:31:32;99276.38;;;23.40;39.39
28630;BME280;15817;42.130;24.762;2023-04-21T10:36:31;99270.69;;;23.57;38.98
28630;BME280;15817;42.130;24.762;2023-04-21T10:39:03;99281.44;;;23.59;38.55
28630;BME280;15817;42.130;24.762;2023-04-21T10:41:32;99266.25;;;23.69;37.90
28630;BME280;15817;42.130;24.762;2023-04-21T10:46:35;99266.69;;;23.63;37.51
28630;BME280;15817;42.130;24.762;2023-04-21T10:49:09;99260.81;;;23.69;38.01
28630;BME280;15817;42.130;24.762;2023-04-21T10:54:42;99265.41;;;23.81;37.94
28630;BME280;15817;42.130;24.762;2023-04-21T10:57:12;99258.97;;;23.03;37.94
28630;BME280;15817;42.130;24.762;2023-04-21T10:59:38;99263.81;;;22.57;38.38
28630;BME280;15817;42.130;24.762;2023-04-21T11:02:05;99276.31;;;22.31;39.45
28630;BME280;15817;42.130;24.762;2023-04-21T11:04:34;99261.31;;;22.39;39.11
28630;BME280;15817;42.130;24.762;2023-04-21T11:07:14;99263.16;;;22.25;39.32
28630;BME280;15817;42.130;24.762;2023-04-21T11:09:41;99266.53;;;22.43;38.47
28630;BME280;15817;42.130;24.762;2023-04-21T11:12:12;99252.53;;;22.22;39.14
28630;BME280;15817;42.130;24.762;2023-04-21T11:14:39;99254.84;;;21.99;40.19
28630;BME280;15817;42.130;24.762;2023-04-21T11:17:14;99246.38;;;21.90;41.40
28630;BME280;15817;42.130;24.762;2023-04-21T11:19:44;99246.09;;;21.80;42.42
28630;BME280;15817;42.130;24.762;2023-04-21T11:22:11;99252.66;;;21.76;41.91
28630;BME280;15817;42.130;24.762;2023-04-21T11:24:37;99253.31;;;21.65;42.55
28630;BME280;15817;42.130;24.762;2023-04-21T11:27:10;99257.53;;;21.69;42.57
28630;BME280;15817;42.130;24.762;2023-04-21T11:29:38;99248.38;;;21.72;41.99
28630;BME280;15817;42.130;24.762;2023-04-21T11:32:05;99262.47;;;21.63;42.46
28630;BME280;15817;42.130;24.762;2023-04-21T11:34:31;99260.47;;;22.25;40.88
28630;BME280;15817;42.130;24.762;2023-04-21T11:36:57;99269.69;;;22.63;39.64
28630;BME280;15817;42.130;24.762;2023-04-21T11:39:23;99267.56;;;22.68;40.72
28630;BME280;15817;42.130;24.762;2023-04-21T11:41:50;99269.53;;;22.10;40.42
28630;BME280;15817;42.130;24.762;2023-04-21T11:44:36;99269.28;;;21.84;40.80
28630;BME280;15817;42.130;24.762;2023-04-21T11:49:46;99258.81;;;21.64;41.92
28630;BME280;15817;42.130;24.762;2023-04-21T11:52:24;99250.81;;;21.47;42.44
28630;BME280;15817;42.130;24.762;2023-04-21T11:55:00;99250.59;;;21.36;47.13
28630;BME280;15817;42.130;24.762;2023-04-21T11:57:28;99252.91;;;21.57;46.05
28630;BME280;15817;42.130;24.762;2023-04-21T11:59:54;99274.75;;;22.27;43.73
28630;BME280;15817;42.130;24.762;2023-04-21T12:02:24;99263.72;;;22.58;41.43
28630;BME280;15817;42.130;24.762;2023-04-21T12:05:04;99271.53;;;22.63;41.24
28630;BME280;15817;42.130;24.762;2023-04-21T12:07:50;99255.69;;;22.43;41.34
28630;BME280;15817;42.130;24.762;2023-04-21T12:10:23;99259.53;;;22.53;41.59
28630;BME280;15817;42.130;24.762;2023-04-21T12:12:56;99257.00;;;22.64;40.54
28630;BME280;15817;42.130;24.762;2023-04-21T12:15:32;99258.69;;;22.52;40.70
28630;BME280;15817;42.130;24.762;2023-04-21T12:17:58;99255.59;;;22.30;41.57
28630;BME280;15817;42.130;24.762;2023-04-21T12:20:27;99252.09;;;22.42;40.73
28630;BME280;15817;42.130;24.762;2023-04-21T12:22:53;99249.13;;;22.32;40.68
28630;BME280;15817;42.130;24.762;2023-04-21T12:25:20;99236.34;;;22.34;41.14
28630;BME280;15817;42.130;24.762;2023-04-21T12:27:56;99247.44;;;22.58;40.62
28630;BME280;15817;42.130;24.762;2023-04-21T12:30:25;99245.09;;;22.66;40.10
28630;BME280;15817;42.130;24.762;2023-04-21T12:32:51;99238.03;;;22.78;41.41
28630;BME280;15817;42.130;24.762;2023-04-21T12:35:18;99231.22;;;22.44;39.86
28630;BME280;15817;42.130;24.762;2023-04-21T12:37:44;99249.22;;;22.17;40.32
28630;BME280;15817;42.130;24.762;2023-04-21T12:40:10;99255.94;;;21.95;40.58
28630;BME280;15817;42.130;24.762;2023-04-21T12:42:36;99246.28;;;21.77;39.94
28630;BME280;15817;42.130;24.762;2023-04-21T12:45:02;99257.44;;;21.57;39.98
28630;BME280;15817;42.130;24.762;2023-04-21T12:47:29;99248.38;;;21.28;41.98
28630;BME280;15817;42.130;24.762;2023-04-21T12:49:55;99266.00;;;21.19;43.32
28630;BME280;15817;42.130;24.762;2023-04-21T12:52:21;99246.72;;;21.25;43.74
28630;BME280;15817;42.130;24.762;2023-04-21T12:54:55;99262.88;;;20.95;42.03
28630;BME280;15817;42.130;24.762;2023-04-21T12:57:21;99287.91;;;20.83;38.46
28630;BME280;15817;42.130;24.762;2023-04-21T12:59:47;99289.13;;;20.62;43.73
28630;BME280;15817;42.130;24.762;2023-04-21T13:02:12;99281.19;;;20.59;48.34
28630;BME280;15817;42.130;24.762;2023-04-21T13:04:38;99257.56;;;20.47;46.84